sensor_id;sensor_type;location;lat;lon;timestamp;pressure;altitude;pressure_sealevel;temperature;humidity
10482;BME280;5288;42.334;23.876;2023-04-10T00:00:02;56353.78;;;-140.56;57.67
10482;BME280;5288;42.334;23.876;2023-04-10T00:02:29;56397.25;;;-140.56;57.70
10482;BME280;5288;42.334;23.876;2023-04-10T00:04:56;56417.03;;;-140.56;57.57
10482;BME280;5288;42.334;23.876;2023-04-10T00:07:23;56420.97;;;-140.56;57.57
10482;BME280;5288;42.334;23.876;2023-04-10T00:09:50;56407.16;;;-140.56;56.61
10482;BME280;5288;42.334;23.876;2023-04-10T00:12:17;56413.06;;;-140.56;56.27
10482;BME280;5288;42.334;23.876;2023-04-10T00:14:46;56387.38;;;-140.56;57.12
10482;BME280;5288;42.334;23.876;2023-04-10T00:17:13;56409.13;;;-140.56;56.89
10482;BME280;5288;42.334;23.876;2023-04-10T00:19:40;56401.22;;;-140.56;56.82
10482;BME280;5288;42.334;23.876;2023-04-10T00:22:07;56373.56;;;-140.56;56.58
10482;BME280;5288;42.334;23.876;2023-04-10T00:24:34;56403.19;;;-140.56;56.94
10482;BME280;5288;42.334;23.876;2023-04-10T00:27:01;56387.38;;;-140.56;57.21
10482;BME280;5288;42.334;23.876;2023-04-10T00:29:27;56373.56;;;-140.56;57.22
10482;BME280;5288;42.334;23.876;2023-04-10T00:31:56;56405.16;;;-140.56;57.81
10482;BME280;5288;42.334;23.876;2023-04-10T00:34:23;56381.44;;;-140.56;58.80
10482;BME280;5288;42.334;23.876;2023-04-10T00:36:50;56401.22;;;-140.56;59.58
10482;BME280;5288;42.334;23.876;2023-04-10T00:39:18;56391.34;;;-140.56;60.52
10482;BME280;5288;42.334;23.876;2023-04-10T00:41:45;56377.50;;;-140.56;61.24
10482;BME280;5288;42.334;23.876;2023-04-10T00:44:12;56413.06;;;-140.56;61.36
10482;BME280;5288;42.334;23.876;2023-04-10T00:46:39;56375.53;;;-140.56;61.21
10482;BME280;5288;42.334;23.876;2023-04-10T00:49:08;56383.44;;;-140.56;61.51
10482;BME280;5288;42.334;23.876;2023-04-10T00:51:36;56359.72;;;-140.56;61.71
10482;BME280;5288;42.334;23.876;2023-04-10T00:54:03;56432.84;;;-140.56;62.21
10482;BME280;5288;42.334;23.876;2023-04-10T00:56:31;56397.25;;;-140.56;62.50
10482;BME280;5288;42.334;23.876;2023-04-10T00:58:59;56424.94;;;-140.56;63.36
10482;BME280;5288;42.334;23.876;2023-04-10T01:01:27;56401.22;;;-140.56;63.58
10482;BME280;5288;42.334;23.876;2023-04-10T01:03:54;56442.72;;;-140.56;63.00
10482;BME280;5288;42.334;23.876;2023-04-10T01:06:29;56401.22;;;-140.56;62.74
10482;BME280;5288;42.334;23.876;2023-04-10T01:09:04;56420.97;;;-140.56;63.64
10482;BME280;5288;42.334;23.876;2023-04-10T01:11:41;56419.00;;;-140.56;63.68
10482;BME280;5288;42.334;23.876;2023-04-10T01:14:15;56413.06;;;-140.56;63.42
10482;BME280;5288;42.334;23.876;2023-04-10T01:16:49;56409.13;;;-140.56;63.88
10482;BME280;5288;42.334;23.876;2023-04-10T01:19:26;56420.97;;;-140.56;63.90
10482;BME280;5288;42.334;23.876;2023-04-10T01:21:58;56409.13;;;-140.56;64.27
10482;BME280;5288;42.334;23.876;2023-04-10T01:24:40;56385.41;;;-140.56;64.83
10482;BME280;5288;42.334;23.876;2023-04-10T01:27:26;56399.25;;;-140.56;64.46
10482;BME280;5288;42.334;23.876;2023-04-10T01:30:00;56415.06;;;-140.56;64.74
10482;BME280;5288;42.334;23.876;2023-04-10T01:32:29;56428.88;;;-140.56;64.51
10482;BME280;5288;42.334;23.876;2023-04-10T01:34:59;56403.19;;;-140.56;64.43
10482;BME280;5288;42.334;23.876;2023-04-10T01:37:30;56409.13;;;-140.56;64.48
10482;BME280;5288;42.334;23.876;2023-04-10T01:40:01;56432.84;;;-140.56;64.28
10482;BME280;5288;42.334;23.876;2023-04-10T01:42:31;56415.06;;;-140.56;64.25
10482;BME280;5288;42.334;23.876;2023-04-10T01:45:03;56399.25;;;-140.56;64.69
10482;BME280;5288;42.334;23.876;2023-04-10T01:47:32;56401.22;;;-140.56;64.82
10482;BME280;5288;42.334;23.876;2023-04-10T01:49:59;56444.69;;;-140.56;64.92
10482;BME280;5288;42.334;23.876;2023-04-10T01:52:27;56436.78;;;-140.56;64.98
10482;BME280;5288;42.334;23.876;2023-04-10T01:54:56;56420.97;;;-140.56;65.32
10482;BME280;5288;42.334;23.876;2023-04-10T01:57:24;56456.56;;;-140.56;65.09
10482;BME280;5288;42.334;23.876;2023-04-10T01:59:51;56436.78;;;-140.56;64.64
10482;BME280;5288;42.334;23.876;2023-04-10T02:02:19;56428.88;;;-140.56;64.55
10482;BME280;5288;42.334;23.876;2023-04-10T02:04:46;56405.16;;;-140.56;65.25
10482;BME280;5288;42.334;23.876;2023-04-10T02:07:19;56405.16;;;-140.56;65.36
10482;BME280;5288;42.334;23.876;2023-04-10T02:09:55;56450.63;;;-140.56;65.22
10482;BME280;5288;42.334;23.876;2023-04-10T02:12:28;56411.09;;;-140.56;65.60
10482;BME280;5288;42.334;23.876;2023-04-10T02:14:58;56424.94;;;-140.56;65.20
10482;BME280;5288;42.334;23.876;2023-04-10T02:17:29;56428.88;;;-140.56;65.19
10482;BME280;5288;42.334;23.876;2023-04-10T02:19:57;56434.81;;;-140.56;65.05
10482;BME280;5288;42.334;23.876;2023-04-10T02:22:25;56428.88;;;-140.56;65.42
10482;BME280;5288;42.334;23.876;2023-04-10T02:24:52;56419.00;;;-140.56;65.04
10482;BME280;5288;42.334;23.876;2023-04-10T02:27:27;56432.84;;;-140.56;65.04
10482;BME280;5288;42.334;23.876;2023-04-10T02:29:54;56393.31;;;-140.56;65.05
10482;BME280;5288;42.334;23.876;2023-04-10T02:32:21;56420.97;;;-140.56;65.18
10482;BME280;5288;42.334;23.876;2023-04-10T02:34:49;56413.06;;;-140.56;65.50
10482;BME280;5288;42.334;23.876;2023-04-10T02:37:16;56413.06;;;-140.56;65.74
10482;BME280;5288;42.334;23.876;2023-04-10T02:39:43;56434.81;;;-140.56;66.04
10482;BME280;5288;42.334;23.876;2023-04-10T02:42:10;56426.91;;;-140.56;66.44
10482;BME280;5288;42.334;23.876;2023-04-10T02:44:37;56452.59;;;-140.56;67.03
10482;BME280;5288;42.334;23.876;2023-04-10T02:47:05;56454.59;;;-140.56;66.30
10482;BME280;5288;42.334;23.876;2023-04-10T02:49:32;56438.78;;;-140.56;66.33
10482;BME280;5288;42.334;23.876;2023-04-10T02:52:01;56438.78;;;-140.56;66.97
10482;BME280;5288;42.334;23.876;2023-04-10T02:54:28;56438.78;;;-140.56;67.10
10482;BME280;5288;42.334;23.876;2023-04-10T02:56:55;56399.25;;;-140.56;67.13
10482;BME280;5288;42.334;23.876;2023-04-10T02:59:22;56426.91;;;-140.56;66.82
10482;BME280;5288;42.334;23.876;2023-04-10T03:01:49;56413.06;;;-140.56;66.97
10482;BME280;5288;42.334;23.876;2023-04-10T03:04:16;56444.69;;;-140.56;66.84
10482;BME280;5288;42.334;23.876;2023-04-10T03:06:43;56409.13;;;-140.56;66.78
10482;BME280;5288;42.334;23.876;2023-04-10T03:09:12;56417.03;;;-140.56;67.10
10482;BME280;5288;42.334;23.876;2023-04-10T03:11:39;56389.34;;;-140.56;66.83
10482;BME280;5288;42.334;23.876;2023-04-10T03:14:08;56417.03;;;-140.56;66.93
10482;BME280;5288;42.334;23.876;2023-04-10T03:16:35;56395.28;;;-140.56;66.90
10482;BME280;5288;42.334;23.876;2023-04-10T03:19:02;56426.91;;;-140.56;66.89
10482;BME280;5288;42.334;23.876;2023-04-10T03:21:29;56426.91;;;-140.56;66.64
10482;BME280;5288;42.334;23.876;2023-04-10T03:23:56;56413.06;;;-140.56;67.04
10482;BME280;5288;42.334;23.876;2023-04-10T03:26:24;56413.06;;;-140.56;67.18
10482;BME280;5288;42.334;23.876;2023-04-10T03:28:52;56440.75;;;-140.56;66.98
10482;BME280;5288;42.334;23.876;2023-04-10T03:31:19;56415.06;;;-140.56;66.68
10482;BME280;5288;42.334;23.876;2023-04-10T03:33:46;56419.00;;;-140.56;66.88
10482;BME280;5288;42.334;23.876;2023-04-10T03:36:13;56460.50;;;-140.56;66.91
10482;BME280;5288;42.334;23.876;2023-04-10T03:38:40;56397.25;;;-140.56;66.94
10482;BME280;5288;42.334;23.876;2023-04-10T03:41:07;56458.53;;;-140.56;67.23
10482;BME280;5288;42.334;23.876;2023-04-10T03:43:35;56403.19;;;-140.56;67.55
10482;BME280;5288;42.334;23.876;2023-04-10T03:46:02;56436.78;;;-140.56;68.06
10482;BME280;5288;42.334;23.876;2023-04-10T03:48:29;56413.06;;;-140.56;68.32
10482;BME280;5288;42.334;23.876;2023-04-10T03:50:56;56369.59;;;-140.56;68.27
10482;BME280;5288;42.334;23.876;2023-04-10T03:53:23;56446.69;;;-140.56;68.28
10482;BME280;5288;42.334;23.876;2023-04-10T03:55:50;56399.25;;;-140.56;67.97
10482;BME280;5288;42.334;23.876;2023-04-10T03:58:17;56391.34;;;-140.56;68.42
10482;BME280;5288;42.334;23.876;2023-04-10T04:00:46;56428.88;;;-140.56;68.26
10482;BME280;5288;42.334;23.876;2023-04-10T04:03:13;56405.16;;;-140.56;67.81
10482;BME280;5288;42.334;23.876;2023-04-10T04:05:40;56444.69;;;-140.56;68.50
10482;BME280;5288;42.334;23.876;2023-04-10T04:08:07;56436.78;;;-140.56;68.08
10482;BME280;5288;42.334;23.876;2023-04-10T04:10:34;56440.75;;;-140.56;67.82
10482;BME280;5288;42.334;23.876;2023-04-10T04:13:01;56415.06;;;-140.56;67.77
10482;BME280;5288;42.334;23.876;2023-04-10T04:15:27;56428.88;;;-140.56;67.41
10482;BME280;5288;42.334;23.876;2023-04-10T04:17:56;56446.69;;;-140.56;67.76
10482;BME280;5288;42.334;23.876;2023-04-10T04:20:23;56424.94;;;-140.56;67.82
10482;BME280;5288;42.334;23.876;2023-04-10T04:22:50;56417.03;;;-140.56;67.98
10482;BME280;5288;42.334;23.876;2023-04-10T04:25:17;56424.94;;;-140.56;68.09
10482;BME280;5288;42.334;23.876;2023-04-10T04:27:44;56438.78;;;-140.56;68.33
10482;BME280;5288;42.334;23.876;2023-04-10T04:30:11;56430.88;;;-140.56;68.31
10482;BME280;5288;42.334;23.876;2023-04-10T04:32:38;56436.78;;;-140.56;68.64
10482;BME280;5288;42.334;23.876;2023-04-10T04:35:07;56401.22;;;-140.56;68.62
10482;BME280;5288;42.334;23.876;2023-04-10T04:37:35;56401.22;;;-140.56;69.00
10482;BME280;5288;42.334;23.876;2023-04-10T04:40:02;56446.69;;;-140.56;69.48
10482;BME280;5288;42.334;23.876;2023-04-10T04:42:29;56428.88;;;-140.56;69.56
10482;BME280;5288;42.334;23.876;2023-04-10T04:44:56;56438.78;;;-140.56;69.63
10482;BME280;5288;42.334;23.876;2023-04-10T04:47:23;56460.50;;;-140.56;69.93
10482;BME280;5288;42.334;23.876;2023-04-10T04:49:50;56415.06;;;-140.56;69.98
10482;BME280;5288;42.334;23.876;2023-04-10T04:52:18;56428.88;;;-140.56;70.58
10482;BME280;5288;42.334;23.876;2023-04-10T04:54:45;56454.59;;;-140.56;71.20
10482;BME280;5288;42.334;23.876;2023-04-10T04:57:12;56419.00;;;-140.56;71.04
10482;BME280;5288;42.334;23.876;2023-04-10T04:59:41;56428.88;;;-140.56;71.27
10482;BME280;5288;42.334;23.876;2023-04-10T05:02:08;56411.09;;;-140.56;71.30
10482;BME280;5288;42.334;23.876;2023-04-10T05:04:35;56413.06;;;-140.56;71.53
10482;BME280;5288;42.334;23.876;2023-04-10T05:07:02;56444.69;;;-140.56;72.30
10482;BME280;5288;42.334;23.876;2023-04-10T05:09:30;56478.28;;;-140.56;73.10
10482;BME280;5288;42.334;23.876;2023-04-10T05:11:57;56438.78;;;-140.56;73.31
10482;BME280;5288;42.334;23.876;2023-04-10T05:14:24;56411.09;;;-140.56;73.60
10482;BME280;5288;42.334;23.876;2023-04-10T05:16:51;56442.72;;;-140.56;74.07
10482;BME280;5288;42.334;23.876;2023-04-10T05:19:18;56407.16;;;-140.56;74.02
10482;BME280;5288;42.334;23.876;2023-04-10T05:21:45;56413.06;;;-140.56;73.80
10482;BME280;5288;42.334;23.876;2023-04-10T05:24:12;56415.06;;;-140.56;74.25
10482;BME280;5288;42.334;23.876;2023-04-10T05:26:40;56409.13;;;-140.56;73.58
10482;BME280;5288;42.334;23.876;2023-04-10T05:29:07;56411.09;;;-140.56;73.36
10482;BME280;5288;42.334;23.876;2023-04-10T05:31:35;56424.94;;;-140.56;73.80
10482;BME280;5288;42.334;23.876;2023-04-10T05:34:02;56401.22;;;-140.56;74.44
10482;BME280;5288;42.334;23.876;2023-04-10T05:36:29;56448.66;;;-140.56;75.51
10482;BME280;5288;42.334;23.876;2023-04-10T05:38:56;56430.88;;;-140.56;75.69
10482;BME280;5288;42.334;23.876;2023-04-10T05:41:23;56419.00;;;-140.56;75.53
10482;BME280;5288;42.334;23.876;2023-04-10T05:43:51;56458.53;;;-140.56;76.36
10482;BME280;5288;42.334;23.876;2023-04-10T05:46:18;56444.69;;;-140.56;76.90
10482;BME280;5288;42.334;23.876;2023-04-10T05:48:45;56417.03;;;-140.56;77.21
10482;BME280;5288;42.334;23.876;2023-04-10T05:51:12;56417.03;;;-140.56;76.56
10482;BME280;5288;42.334;23.876;2023-04-10T05:53:39;56428.88;;;-140.56;76.22
10482;BME280;5288;42.334;23.876;2023-04-10T05:56:07;56448.66;;;-140.56;75.41
10482;BME280;5288;42.334;23.876;2023-04-10T05:58:34;56434.81;;;-140.56;74.70
10482;BME280;5288;42.334;23.876;2023-04-10T06:01:03;56450.63;;;-140.56;73.84
10482;BME280;5288;42.334;23.876;2023-04-10T06:03:30;56417.03;;;-140.56;72.50
10482;BME280;5288;42.334;23.876;2023-04-10T06:05:57;56428.88;;;-140.56;72.44
10482;BME280;5288;42.334;23.876;2023-04-10T06:08:24;56436.78;;;-140.56;71.11
10482;BME280;5288;42.334;23.876;2023-04-10T06:10:51;56448.66;;;-140.56;70.38
10482;BME280;5288;42.334;23.876;2023-04-10T06:13:18;56415.06;;;-140.56;69.69
10482;BME280;5288;42.334;23.876;2023-04-10T06:15:45;56438.78;;;-140.56;68.88
10482;BME280;5288;42.334;23.876;2023-04-10T06:18:13;56438.78;;;-140.56;68.31
10482;BME280;5288;42.334;23.876;2023-04-10T06:20:40;56436.78;;;-140.56;68.23
10482;BME280;5288;42.334;23.876;2023-04-10T06:23:07;56438.78;;;-140.56;68.32
10482;BME280;5288;42.334;23.876;2023-04-10T06:25:34;56430.88;;;-140.56;67.96
10482;BME280;5288;42.334;23.876;2023-04-10T06:28:01;56428.88;;;-140.56;67.40
10482;BME280;5288;42.334;23.876;2023-04-10T06:30:28;56415.06;;;-140.56;67.28
10482;BME280;5288;42.334;23.876;2023-04-10T06:32:58;56417.03;;;-140.56;66.61
10482;BME280;5288;42.334;23.876;2023-04-10T06:35:26;56413.06;;;-140.56;66.66
10482;BME280;5288;42.334;23.876;2023-04-10T06:37:53;56403.19;;;-140.56;67.20
10482;BME280;5288;42.334;23.876;2023-04-10T06:40:20;56419.00;;;-140.56;67.10
10482;BME280;5288;42.334;23.876;2023-04-10T06:42:47;56428.88;;;-140.56;66.51
10482;BME280;5288;42.334;23.876;2023-04-10T06:45:14;56393.31;;;-140.56;65.55
10482;BME280;5288;42.334;23.876;2023-04-10T06:47:41;56395.28;;;-140.56;65.60
10482;BME280;5288;42.334;23.876;2023-04-10T06:50:08;56452.59;;;-140.56;65.78
10482;BME280;5288;42.334;23.876;2023-04-10T06:52:37;56381.44;;;-140.56;65.37
10482;BME280;5288;42.334;23.876;2023-04-10T06:55:04;56405.16;;;-140.56;65.28
10482;BME280;5288;42.334;23.876;2023-04-10T06:57:31;56377.50;;;-140.56;65.70
10482;BME280;5288;42.334;23.876;2023-04-10T06:59:58;56409.13;;;-140.56;65.60
10482;BME280;5288;42.334;23.876;2023-04-10T07:02:25;56417.03;;;-140.56;65.58
10482;BME280;5288;42.334;23.876;2023-04-10T07:04:52;56415.06;;;-140.56;65.79
10482;BME280;5288;42.334;23.876;2023-04-10T07:07:21;56420.97;;;-140.56;64.79
10482;BME280;5288;42.334;23.876;2023-04-10T07:09:49;56403.19;;;-140.56;64.54
10482;BME280;5288;42.334;23.876;2023-04-10T07:12:16;56393.31;;;-140.56;64.76
10482;BME280;5288;42.334;23.876;2023-04-10T07:14:43;56422.97;;;-140.56;64.36
10482;BME280;5288;42.334;23.876;2023-04-10T07:17:10;56409.13;;;-140.56;63.84
10482;BME280;5288;42.334;23.876;2023-04-10T07:19:37;56411.09;;;-140.56;62.87
10482;BME280;5288;42.334;23.876;2023-04-10T07:22:04;56409.13;;;-140.56;62.01
10482;BME280;5288;42.334;23.876;2023-04-10T07:24:31;56393.31;;;-140.56;62.08
10482;BME280;5288;42.334;23.876;2023-04-10T07:26:59;56391.34;;;-140.56;61.89
10482;BME280;5288;42.334;23.876;2023-04-10T07:29:26;56409.13;;;-140.56;61.42
10482;BME280;5288;42.334;23.876;2023-04-10T07:31:53;56399.25;;;-140.56;59.95
10482;BME280;5288;42.334;23.876;2023-04-10T07:34:20;56405.16;;;-140.56;59.57
10482;BME280;5288;42.334;23.876;2023-04-10T07:36:48;56405.16;;;-140.56;59.47
10482;BME280;5288;42.334;23.876;2023-04-10T07:39:15;56417.03;;;-140.56;59.26
10482;BME280;5288;42.334;23.876;2023-04-10T07:41:42;56393.31;;;-140.56;59.85
10482;BME280;5288;42.334;23.876;2023-04-10T07:44:10;56417.03;;;-140.56;59.75
10482;BME280;5288;42.334;23.876;2023-04-10T07:46:37;56383.44;;;-140.56;59.56
10482;BME280;5288;42.334;23.876;2023-04-10T07:49:04;56385.41;;;-140.56;58.61
10482;BME280;5288;42.334;23.876;2023-04-10T07:51:31;56417.03;;;-140.56;57.49
10482;BME280;5288;42.334;23.876;2023-04-10T07:53:58;56387.38;;;-140.56;56.61
10482;BME280;5288;42.334;23.876;2023-04-10T07:56:25;56399.25;;;-140.56;57.07
10482;BME280;5288;42.334;23.876;2023-04-10T07:58:57;56373.56;;;-140.56;57.39
10482;BME280;5288;42.334;23.876;2023-04-10T08:01:26;56385.41;;;-140.56;57.42
10482;BME280;5288;42.334;23.876;2023-04-10T08:03:53;56365.66;;;-140.56;57.41
10482;BME280;5288;42.334;23.876;2023-04-10T08:06:21;56389.34;;;-140.56;57.59
10482;BME280;5288;42.334;23.876;2023-04-10T08:08:48;56393.31;;;-140.56;57.60
10482;BME280;5288;42.334;23.876;2023-04-10T08:11:23;56373.56;;;-140.56;57.50
10482;BME280;5288;42.334;23.876;2023-04-10T08:13:50;56361.69;;;-140.56;56.62
10482;BME280;5288;42.334;23.876;2023-04-10T08:16:19;56363.66;;;-140.56;56.38
10482;BME280;5288;42.334;23.876;2023-04-10T08:18:47;56383.44;;;-140.56;56.33
10482;BME280;5288;42.334;23.876;2023-04-10T08:21:14;56357.75;;;-140.56;55.95
10482;BME280;5288;42.334;23.876;2023-04-10T08:23:41;56361.69;;;-140.56;55.92
10482;BME280;5288;42.334;23.876;2023-04-10T08:26:10;56399.25;;;-140.56;56.44
10482;BME280;5288;42.334;23.876;2023-04-10T08:28:37;56373.56;;;-140.56;55.67
10482;BME280;5288;42.334;23.876;2023-04-10T08:31:05;56409.13;;;-140.56;55.95
10482;BME280;5288;42.334;23.876;2023-04-10T08:33:32;56371.56;;;-140.56;56.95
10482;BME280;5288;42.334;23.876;2023-04-10T08:36:00;56373.56;;;-140.56;56.27
10482;BME280;5288;42.334;23.876;2023-04-10T08:38:27;56385.41;;;-140.56;56.33
10482;BME280;5288;42.334;23.876;2023-04-10T08:40:54;56347.84;;;-140.56;56.38
10482;BME280;5288;42.334;23.876;2023-04-10T08:43:21;56373.56;;;-140.56;56.36
10482;BME280;5288;42.334;23.876;2023-04-10T08:45:50;56367.63;;;-140.56;56.30
10482;BME280;5288;42.334;23.876;2023-04-10T08:48:18;56367.63;;;-140.56;56.55
10482;BME280;5288;42.334;23.876;2023-04-10T08:50:46;56361.69;;;-140.56;56.11
10482;BME280;5288;42.334;23.876;2023-04-10T08:53:15;56361.69;;;-140.56;56.24
10482;BME280;5288;42.334;23.876;2023-04-10T08:55:44;56334.03;;;-140.56;56.05
10482;BME280;5288;42.334;23.876;2023-04-10T08:58:11;56349.84;;;-140.56;55.92
10482;BME280;5288;42.334;23.876;2023-04-10T09:00:39;56345.88;;;-140.56;55.95
10482;BME280;5288;42.334;23.876;2023-04-10T09:03:08;56367.63;;;-140.56;55.47
10482;BME280;5288;42.334;23.876;2023-04-10T09:08:22;56377.50;;;-140.56;57.28
10482;BME280;5288;42.334;23.876;2023-04-10T09:10:49;56373.56;;;-140.56;57.38
10482;BME280;5288;42.334;23.876;2023-04-10T09:13:34;56353.78;;;-140.56;58.97
10482;BME280;5288;42.334;23.876;2023-04-10T09:16:01;56351.81;;;-140.56;60.01
10482;BME280;5288;42.334;23.876;2023-04-10T09:18:46;56355.75;;;-140.56;59.61
10482;BME280;5288;42.334;23.876;2023-04-10T09:21:15;56373.56;;;-140.56;59.75
10482;BME280;5288;42.334;23.876;2023-04-10T09:23:45;56353.78;;;-140.56;60.61
10482;BME280;5288;42.334;23.876;2023-04-10T09:26:22;56391.34;;;-140.56;60.94
10482;BME280;5288;42.334;23.876;2023-04-10T09:28:57;56379.47;;;-140.56;59.82
10482;BME280;5288;42.334;23.876;2023-04-10T09:31:32;56363.66;;;-140.56;56.74
10482;BME280;5288;42.334;23.876;2023-04-10T09:34:13;56389.34;;;-140.56;56.41
10482;BME280;5288;42.334;23.876;2023-04-10T09:36:41;56391.34;;;-140.56;59.07
10482;BME280;5288;42.334;23.876;2023-04-10T09:39:10;56355.75;;;-140.56;60.18
10482;BME280;5288;42.334;23.876;2023-04-10T09:41:49;56343.91;;;-140.56;59.69
10482;BME280;5288;42.334;23.876;2023-04-10T09:44:17;56359.72;;;-140.56;58.03
10482;BME280;5288;42.334;23.876;2023-04-10T09:46:45;56336.00;;;-140.56;56.03
10482;BME280;5288;42.334;23.876;2023-04-10T09:49:14;56357.75;;;-140.56;54.82
10482;BME280;5288;42.334;23.876;2023-04-10T09:51:41;56397.25;;;-140.56;51.40
10482;BME280;5288;42.334;23.876;2023-04-10T09:54:09;56359.72;;;-140.56;50.43
10482;BME280;5288;42.334;23.876;2023-04-10T09:56:38;56339.94;;;-140.56;51.13
10482;BME280;5288;42.334;23.876;2023-04-10T09:59:06;56339.94;;;-140.56;51.86
10482;BME280;5288;42.334;23.876;2023-04-10T10:01:36;56310.31;;;-140.56;50.06
10482;BME280;5288;42.334;23.876;2023-04-10T10:04:06;56328.09;;;-140.56;49.57
10482;BME280;5288;42.334;23.876;2023-04-10T10:06:34;56334.03;;;-140.56;49.95
10482;BME280;5288;42.334;23.876;2023-04-10T10:09:03;56363.66;;;-140.56;50.02
10482;BME280;5288;42.334;23.876;2023-04-10T10:11:33;56320.19;;;-140.56;50.02
10482;BME280;5288;42.334;23.876;2023-04-10T10:14:03;56363.66;;;-140.56;50.46
10482;BME280;5288;42.334;23.876;2023-04-10T10:16:36;56353.78;;;-140.56;50.55
10482;BME280;5288;42.334;23.876;2023-04-10T10:19:08;56322.16;;;-140.56;50.50
10482;BME280;5288;42.334;23.876;2023-04-10T10:21:39;56363.66;;;-140.56;50.81
10482;BME280;5288;42.334;23.876;2023-04-10T10:24:08;56353.78;;;-140.56;50.86
10482;BME280;5288;42.334;23.876;2023-04-10T10:26:38;56318.22;;;-140.56;49.59
10482;BME280;5288;42.334;23.876;2023-04-10T10:29:06;56351.81;;;-140.56;48.72
10482;BME280;5288;42.334;23.876;2023-04-10T10:31:35;56353.78;;;-140.56;48.84
10482;BME280;5288;42.334;23.876;2023-04-10T10:34:03;56324.13;;;-140.56;48.66
10482;BME280;5288;42.334;23.876;2023-04-10T10:36:32;56322.16;;;-140.56;47.65
10482;BME280;5288;42.334;23.876;2023-04-10T10:39:16;56328.09;;;-140.56;47.08
10482;BME280;5288;42.334;23.876;2023-04-10T10:41:55;56308.34;;;-140.56;47.98
10482;BME280;5288;42.334;23.876;2023-04-10T10:44:30;56318.22;;;-140.56;46.95
10482;BME280;5288;42.334;23.876;2023-04-10T10:47:06;56308.34;;;-140.56;48.10
10482;BME280;5288;42.334;23.876;2023-04-10T10:49:54;56294.50;;;-140.56;46.94
10482;BME280;5288;42.334;23.876;2023-04-10T10:52:42;56304.38;;;-140.56;48.34
10482;BME280;5288;42.334;23.876;2023-04-10T10:55:31;56337.97;;;-140.56;49.00
10482;BME280;5288;42.334;23.876;2023-04-10T10:58:02;56314.25;;;-140.56;48.48
10482;BME280;5288;42.334;23.876;2023-04-10T11:01:04;56298.44;;;-140.56;48.25
10482;BME280;5288;42.334;23.876;2023-04-10T11:03:32;56302.41;;;-140.56;48.38
10482;BME280;5288;42.334;23.876;2023-04-10T11:06:00;56245.09;;;-140.56;47.21
10482;BME280;5288;42.334;23.876;2023-04-10T11:08:35;56312.28;;;-140.56;46.83
10482;BME280;5288;42.334;23.876;2023-04-10T11:11:05;56328.09;;;-140.56;47.38
10482;BME280;5288;42.334;23.876;2023-04-10T11:13:34;56286.59;;;-140.56;47.97
10482;BME280;5288;42.334;23.876;2023-04-10T11:16:03;56332.03;;;-140.56;45.86
10482;BME280;5288;42.334;23.876;2023-04-10T11:22:00;56264.84;;;-140.56;46.85
10482;BME280;5288;42.334;23.876;2023-04-10T11:24:28;56290.53;;;-140.56;45.83
10482;BME280;5288;42.334;23.876;2023-04-10T11:26:55;56300.44;;;-140.56;46.13
10482;BME280;5288;42.334;23.876;2023-04-10T11:29:33;56294.50;;;-140.56;45.67
10482;BME280;5288;42.334;23.876;2023-04-10T11:32:02;56274.72;;;-140.56;46.78
10482;BME280;5288;42.334;23.876;2023-04-10T11:34:30;56288.56;;;-140.56;46.00
10482;BME280;5288;42.334;23.876;2023-04-10T11:36:58;56290.53;;;-140.56;46.08
10482;BME280;5288;42.334;23.876;2023-04-10T11:39:28;56258.94;;;-140.56;45.59
10482;BME280;5288;42.334;23.876;2023-04-10T11:41:56;56266.81;;;-140.56;43.72
10482;BME280;5288;42.334;23.876;2023-04-10T11:44:28;56304.38;;;-140.56;43.90
10482;BME280;5288;42.334;23.876;2023-04-10T11:46:57;56247.06;;;-140.56;44.03
10482;BME280;5288;42.334;23.876;2023-04-10T11:49:25;56282.63;;;-140.56;44.38
10482;BME280;5288;42.334;23.876;2023-04-10T11:51:53;56251.03;;;-140.56;44.09
10482;BME280;5288;42.334;23.876;2023-04-10T11:54:21;56260.91;;;-140.56;44.29
10482;BME280;5288;42.334;23.876;2023-04-10T11:56:57;56304.38;;;-140.56;44.62
10482;BME280;5288;42.334;23.876;2023-04-10T11:59:24;56286.59;;;-140.56;46.07
10482;BME280;5288;42.334;23.876;2023-04-10T12:01:52;56262.88;;;-140.56;43.77
10482;BME280;5288;42.334;23.876;2023-04-10T12:04:22;56282.63;;;-140.56;43.29
10482;BME280;5288;42.334;23.876;2023-04-10T12:06:50;56284.63;;;-140.56;44.49
10482;BME280;5288;42.334;23.876;2023-04-10T12:09:19;56211.50;;;-140.56;42.61
10482;BME280;5288;42.334;23.876;2023-04-10T12:11:51;56223.34;;;-140.56;41.12
10482;BME280;5288;42.334;23.876;2023-04-10T12:14:19;56235.22;;;-140.56;42.48
10482;BME280;5288;42.334;23.876;2023-04-10T12:16:46;56247.06;;;-140.56;40.89
10482;BME280;5288;42.334;23.876;2023-04-10T12:19:14;56270.78;;;-140.56;41.23
10482;BME280;5288;42.334;23.876;2023-04-10T12:21:44;56276.72;;;-140.56;41.42
10482;BME280;5288;42.334;23.876;2023-04-10T12:24:11;56284.63;;;-140.56;42.22
10482;BME280;5288;42.334;23.876;2023-04-10T12:26:46;56258.94;;;-140.56;42.68
10482;BME280;5288;42.334;23.876;2023-04-10T12:29:13;56251.03;;;-140.56;41.52
10482;BME280;5288;42.334;23.876;2023-04-10T12:31:40;56239.16;;;-140.56;42.12
10482;BME280;5288;42.334;23.876;2023-04-10T12:34:07;56256.94;;;-140.56;41.59
10482;BME280;5288;42.334;23.876;2023-04-10T12:36:35;56258.94;;;-140.56;43.30
10482;BME280;5288;42.334;23.876;2023-04-10T12:39:04;56260.91;;;-140.56;42.71
10482;BME280;5288;42.334;23.876;2023-04-10T12:41:32;56268.81;;;-140.56;42.41
10482;BME280;5288;42.334;23.876;2023-04-10T12:44:10;56249.03;;;-140.56;42.33
10482;BME280;5288;42.334;23.876;2023-04-10T12:46:37;56272.75;;;-140.56;42.91
10482;BME280;5288;42.334;23.876;2023-04-10T12:49:09;56286.59;;;-140.56;42.84
10482;BME280;5288;42.334;23.876;2023-04-10T12:51:47;56266.81;;;-140.56;42.96
10482;BME280;5288;42.334;23.876;2023-04-10T12:54:31;56274.72;;;-140.56;43.27